createdAt,value
2023-05-01T00:01:15.527Z,14.00
2023-05-01T00:03:43.069Z,14.00
2023-05-01T00:06:13.180Z,14.10
2023-05-01T00:08:40.658Z,14.00
2023-05-01T00:11:11.462Z,13.90
2023-05-01T00:13:44.130Z,13.90
2023-05-01T00:16:12.817Z,14.00
2023-05-01T00:18:41.815Z,14.00
2023-05-01T00:21:12.551Z,14.10
2023-05-01T00:23:48.998Z,14.10
2023-05-01T00:26:16.452Z,14.00
2023-05-01T00:28:52.049Z,14.00
2023-05-01T00:31:25.580Z,13.90
2023-05-01T00:33:52.969Z,13.80
2023-05-01T00:36:20.971Z,13.80
2023-05-01T00:38:51.082Z,13.90
2023-05-01T00:41:20.197Z,13.70
2023-05-01T00:43:51.560Z,13.70
2023-05-01T00:52:54.358Z,13.80
2023-05-01T00:55:23.004Z,13.30
2023-05-01T00:57:50.665Z,12.80
2023-05-01T01:00:19.573Z,12.70
2023-05-01T01:02:52.617Z,12.80
2023-05-01T01:05:25.249Z,13.20
2023-05-01T01:08:20.296Z,13.60
2023-05-01T01:10:59.471Z,13.30
2023-05-01T01:13:37.230Z,13.40
2023-05-01T01:16:07.847Z,13.40
2023-05-01T01:19:07.465Z,13.40
2023-05-01T01:21:47.691Z,13.50
2023-05-01T01:24:52.087Z,13.40
2023-05-01T01:27:43.929Z,13.30
2023-05-01T01:30:42.629Z,13.30
2023-05-01T01:33:48.451Z,13.40
2023-05-01T01:36:46.964Z,13.30
2023-05-01T01:40:04.329Z,13.40
2023-05-01T01:42:43.324Z,13.40
2023-05-01T01:45:19.474Z,13.40
2023-05-01T01:47:48.318Z,13.40
2023-05-01T01:50:17.274Z,13.40
2023-05-01T01:52:49.681Z,13.20
2023-05-01T01:55:27.966Z,13.20
2023-05-01T01:57:59.309Z,13.30
2023-05-01T02:00:28.686Z,13.20
2023-05-01T02:03:01.486Z,13.30
2023-05-01T02:05:32.589Z,13.00
2023-05-01T02:08:00.742Z,13.10
2023-05-01T02:10:29.883Z,13.00
2023-05-01T02:12:59.757Z,13.00
2023-05-01T02:15:28.797Z,13.00
2023-05-01T02:18:05.309Z,13.10
2023-05-01T02:20:34.378Z,12.90
2023-05-01T02:23:06.341Z,13.00
2023-05-01T02:25:37.633Z,13.10
2023-05-01T02:28:13.051Z,13.30
2023-05-01T02:30:40.758Z,13.20
2023-05-01T02:33:41.373Z,13.10
2023-05-01T02:36:21.618Z,13.10
2023-05-01T02:39:03.314Z,13.00
2023-05-01T02:42:03.450Z,13.00
2023-05-01T02:44:42.103Z,12.90
2023-05-01T02:47:12.904Z,12.90
2023-05-01T02:49:41.115Z,13.00
2023-05-01T02:52:08.918Z,13.00
2023-05-01T02:54:36.793Z,12.90
2023-05-01T02:57:05.573Z,12.90
2023-05-01T02:59:34.161Z,12.90
2023-05-01T03:02:01.520Z,12.10
2023-05-01T03:04:37.742Z,11.90
2023-05-01T03:07:05.098Z,11.80
2023-05-01T03:12:28.551Z,12.20
2023-05-01T03:14:56.582Z,12.20
2023-05-01T03:17:26.136Z,12.40
2023-05-01T03:19:54.047Z,12.60
2023-05-01T03:22:21.395Z,12.60
2023-05-01T03:24:48.714Z,12.70
2023-05-01T03:27:37.810Z,12.70
2023-05-01T03:30:06.183Z,12.70
2023-05-01T03:32:33.459Z,12.70
2023-05-01T03:35:07.383Z,12.70
2023-05-01T03:37:34.660Z,12.60
2023-05-01T03:40:02.183Z,12.50
2023-05-01T03:42:30.003Z,12.30
2023-05-01T03:45:00.250Z,12.30
2023-05-01T03:47:30.629Z,12.40
2023-05-01T03:49:58.428Z,12.30
2023-05-01T03:52:26.743Z,12.30
2023-05-01T03:54:53.941Z,12.30
2023-05-01T03:57:21.263Z,12.40
2023-05-01T03:59:48.529Z,12.40
2023-05-01T04:02:16.237Z,12.40
2023-05-01T04:04:43.484Z,12.40
2023-05-01T04:07:10.859Z,12.40
2023-05-01T04:09:38.119Z,12.50
2023-05-01T04:12:13.482Z,12.60
2023-05-01T04:14:40.680Z,12.50
2023-05-01T04:17:16.186Z,12.60
2023-05-01T04:19:43.899Z,12.70
2023-05-01T04:22:11.182Z,12.60
2023-05-01T04:24:38.395Z,12.70
2023-05-01T04:27:06.149Z,12.60
2023-05-01T04:29:33.355Z,12.70
2023-05-01T04:32:00.586Z,12.70
2023-05-01T04:34:29.684Z,12.70
2023-05-01T04:37:09.259Z,12.60
2023-05-01T04:39:36.596Z,12.60
2023-05-01T04:42:04.853Z,12.60
2023-05-01T04:44:35.641Z,12.70
2023-05-01T04:47:04.401Z,12.80
2023-05-01T04:49:32.317Z,12.80
2023-05-01T04:51:59.529Z,12.80
2023-05-01T04:54:27.766Z,12.60
2023-05-01T04:56:54.904Z,12.50
2023-05-01T04:59:27.541Z,12.60
2023-05-01T05:01:55.073Z,12.70
2023-05-01T05:04:22.438Z,12.70
2023-05-01T05:06:49.778Z,12.80
2023-05-01T05:09:20.285Z,12.80
2023-05-01T05:11:53.058Z,12.90
2023-05-01T05:15:13.578Z,13.00
2023-05-01T05:17:44.988Z,13.10
2023-05-01T05:20:16.789Z,13.20
2023-05-01T05:22:44.150Z,13.30
2023-05-01T05:25:11.425Z,13.20
2023-05-01T05:27:38.825Z,13.20
2023-05-01T05:30:06.729Z,13.40
2023-05-01T05:32:33.914Z,13.30
2023-05-01T05:35:59.254Z,13.50
2023-05-01T05:38:26.854Z,13.60
2023-05-01T05:40:56.794Z,13.70
2023-05-01T05:43:27.356Z,13.80
2023-05-01T05:46:01.766Z,13.90
2023-05-01T05:48:29.246Z,14.00
2023-05-01T05:51:12.148Z,14.10
2023-05-01T05:53:51.884Z,13.90
2023-05-01T05:56:19.096Z,14.00
2023-05-01T05:58:46.743Z,14.10
2023-05-01T06:01:15.121Z,14.20
2023-05-01T06:03:45.461Z,14.20
2023-05-01T06:06:15.636Z,14.20
2023-05-01T06:08:45.546Z,14.20
2023-05-01T06:18:19.132Z,14.60
2023-05-01T06:21:17.898Z,14.50
2023-05-01T06:23:45.106Z,14.70
2023-05-01T06:29:17.869Z,14.90
2023-05-01T06:31:53.184Z,14.90
2023-05-01T06:34:21.467Z,15.00
2023-05-01T06:36:49.387Z,15.00
2023-05-01T06:39:16.558Z,15.00
2023-05-01T06:41:55.192Z,15.10
2023-05-01T06:44:23.914Z,15.30
2023-05-01T06:46:51.261Z,15.40
2023-05-01T06:49:23.673Z,15.40
2023-05-01T06:51:52.624Z,15.40
2023-05-01T06:54:19.844Z,15.60
2023-05-01T06:56:50.394Z,15.50
2023-05-01T06:59:18.152Z,15.50
2023-05-01T07:01:46.036Z,15.60
2023-05-01T07:04:13.704Z,15.70
2023-05-01T07:06:50.834Z,15.60
2023-05-01T07:09:18.041Z,15.70
2023-05-01T07:11:51.053Z,15.70
2023-05-01T07:14:18.464Z,15.80
2023-05-01T07:16:46.258Z,15.80
2023-05-01T07:19:16.158Z,16.00
2023-05-01T07:21:43.352Z,16.20
2023-05-01T07:24:10.644Z,16.30
2023-05-01T07:26:38.911Z,16.40
2023-05-01T07:29:06.299Z,16.40
2023-05-01T07:31:36.592Z,16.40
2023-05-01T07:34:13.624Z,16.50
2023-05-01T07:36:47.128Z,16.50
2023-05-01T07:39:44.731Z,16.40
2023-05-01T07:42:24.731Z,16.60
2023-05-01T07:44:59.760Z,16.60
2023-05-01T07:47:37.268Z,16.70
2023-05-01T07:50:14.169Z,16.80
2023-05-01T07:52:41.492Z,16.80
2023-05-01T07:55:47.940Z,16.90
2023-05-01T07:58:17.986Z,17.00
2023-05-01T08:01:49.751Z,17.00
2023-05-01T08:04:19.014Z,17.00
2023-05-01T08:06:53.161Z,17.10
2023-05-01T08:09:27.751Z,17.20
2023-05-01T08:11:58.431Z,17.30
2023-05-01T08:18:03.487Z,17.40
2023-05-01T08:21:00.745Z,17.40
2023-05-01T08:23:31.747Z,17.60
2023-05-01T08:26:00.227Z,17.70
2023-05-01T08:28:33.028Z,17.80
2023-05-01T08:31:04.040Z,17.80
2023-05-01T08:33:31.892Z,18.00
2023-05-01T08:36:00.816Z,17.90
2023-05-01T08:38:28.101Z,17.80
2023-05-01T08:41:02.350Z,17.90
2023-05-01T08:43:34.356Z,18.00
2023-05-01T08:46:02.121Z,18.30
2023-05-01T08:48:34.148Z,18.40
2023-05-01T08:51:23.293Z,18.50
2023-05-01T08:53:54.265Z,18.60
2023-05-01T08:56:41.092Z,18.60
2023-05-01T08:59:13.869Z,18.70
2023-05-01T09:04:38.749Z,19.00
2023-05-01T09:07:16.045Z,19.20
2023-05-01T09:09:54.789Z,19.40
2023-05-01T09:12:35.632Z,19.50
2023-05-01T09:15:30.584Z,19.20
2023-05-01T09:18:03.720Z,19.20
2023-05-01T09:20:38.567Z,19.50
2023-05-01T09:23:11.439Z,19.80
2023-05-01T09:31:51.422Z,20.30
2023-05-01T09:37:48.074Z,20.60
2023-05-01T09:40:16.217Z,20.80
2023-05-01T09:42:57.381Z,20.80
2023-05-01T09:45:31.858Z,20.70
2023-05-01T10:10:06.258Z,21.20
2023-05-01T10:15:38.001Z,21.30
2023-05-01T10:21:00.199Z,21.50
2023-05-01T10:23:28.605Z,21.50
2023-05-01T10:26:03.645Z,21.60
2023-05-01T10:37:37.662Z,21.60
2023-05-01T10:40:40.469Z,21.80
2023-05-01T10:43:33.768Z,21.70
2023-05-01T10:46:24.994Z,21.80
2023-05-01T10:49:54.225Z,21.90
2023-05-01T10:52:39.185Z,22.00
2023-05-01T10:55:41.085Z,22.20
2023-05-01T11:01:34.869Z,22.40
2023-05-01T11:04:35.496Z,22.50
2023-05-01T11:10:01.416Z,22.90
2023-05-01T11:13:00.474Z,23.00
2023-05-01T11:18:24.021Z,23.10
2023-05-01T11:20:57.525Z,22.90
2023-05-01T11:23:35.295Z,22.90
2023-05-01T11:26:06.230Z,22.90
2023-05-01T11:28:38.653Z,22.90
2023-05-01T11:31:06.105Z,23.00
2023-05-01T11:33:34.948Z,23.50
2023-05-01T11:36:13.010Z,23.60
2023-05-01T11:42:02.475Z,23.30
2023-05-01T11:44:46.077Z,23.70
2023-05-01T11:47:13.977Z,23.60
2023-05-01T11:50:06.001Z,23.90
2023-05-01T11:52:54.822Z,24.20
2023-05-01T11:55:57.232Z,24.40
2023-05-01T11:58:56.431Z,24.40
2023-05-01T12:01:47.968Z,24.70
2023-05-01T12:04:31.626Z,25.10
2023-05-01T12:07:06.238Z,24.90
2023-05-01T12:09:36.219Z,24.90
2023-05-01T12:12:03.850Z,25.10
2023-05-01T12:14:33.522Z,25.40
2023-05-01T12:17:10.855Z,25.20
2023-05-01T12:19:57.222Z,25.20
2023-05-01T12:22:27.015Z,24.90
2023-05-01T12:24:54.390Z,25.40
2023-05-01T12:27:24.152Z,25.60
2023-05-01T12:29:55.673Z,25.20
2023-05-01T12:32:33.747Z,25.30
2023-05-01T12:35:08.961Z,25.80
2023-05-01T12:37:43.862Z,25.60
2023-05-01T12:40:23.393Z,25.50
2023-05-01T12:42:58.294Z,25.60
2023-05-01T12:45:26.824Z,25.60
2023-05-01T12:47:55.313Z,25.50
2023-05-01T12:50:23.946Z,25.00
2023-05-01T12:52:52.612Z,25.00
2023-05-01T12:55:20.696Z,25.30
2023-05-01T12:58:22.366Z,25.20
2023-05-01T13:01:04.913Z,25.10
2023-05-01T13:06:58.202Z,26.10
2023-05-01T13:12:11.093Z,27.60
2023-05-01T13:14:44.077Z,27.90
2023-05-01T13:17:54.842Z,27.50
2023-05-01T13:20:56.067Z,27.00
2023-05-01T13:23:41.282Z,27.10
2023-05-01T13:26:34.320Z,26.70
2023-05-01T13:29:07.005Z,26.70
2023-05-01T13:31:36.855Z,26.80
2023-05-01T13:34:06.874Z,26.40
2023-05-01T13:36:35.862Z,27.40
2023-05-01T13:41:55.099Z,27.60
2023-05-01T13:44:25.427Z,26.80
2023-05-01T13:47:36.963Z,27.00
2023-05-01T13:50:22.873Z,27.30
2023-05-01T13:52:52.725Z,26.20
2023-05-01T13:55:24.177Z,26.40
2023-05-01T14:02:05.238Z,26.20
2023-05-01T14:10:39.384Z,27.00
2023-05-01T14:16:03.129Z,27.20
2023-05-01T14:52:58.307Z,21.70
2023-05-01T14:56:12.105Z,21.40
2023-05-01T15:01:40.274Z,21.00
2023-05-01T15:04:13.209Z,21.10
2023-05-01T15:06:41.729Z,21.10
2023-05-01T15:09:20.377Z,21.10
2023-05-01T15:11:48.458Z,21.20
2023-05-01T15:17:25.591Z,21.40
2023-05-01T15:19:53.858Z,21.50
2023-05-01T15:28:30.377Z,22.60
2023-05-01T15:30:57.674Z,22.30
2023-05-01T15:33:54.930Z,21.50
2023-05-01T15:39:30.053Z,21.10
2023-05-01T15:45:28.963Z,20.80
2023-05-01T15:48:18.252Z,20.90
2023-05-01T15:51:06.793Z,20.90
2023-05-01T15:53:46.575Z,20.70
2023-05-01T15:59:51.367Z,20.70
2023-05-01T16:16:17.740Z,21.00
2023-05-01T16:22:13.925Z,21.20
2023-05-01T16:31:38.148Z,20.30
2023-05-01T16:45:07.284Z,20.00
2023-05-01T16:52:09.723Z,19.80
2023-05-01T17:02:32.811Z,19.50
2023-05-01T17:12:15.049Z,19.40
2023-05-01T17:15:04.383Z,19.30
2023-05-01T17:18:00.295Z,19.20
2023-05-01T17:20:40.072Z,19.30
2023-05-01T17:23:10.709Z,19.20
2023-05-01T17:25:38.840Z,19.10
2023-05-01T17:31:54.589Z,19.00
2023-05-01T17:34:32.705Z,18.90
2023-05-01T17:37:06.501Z,18.80
2023-05-01T17:39:45.109Z,18.70
2023-05-01T17:42:16.087Z,18.70
2023-05-01T17:45:11.870Z,18.60
2023-05-01T17:50:32.951Z,18.50
2023-05-01T17:53:34.434Z,18.40
2023-05-01T17:56:24.450Z,18.30
2023-05-01T18:01:44.976Z,18.10
2023-05-01T18:04:22.499Z,18.10
2023-05-01T18:07:29.488Z,18.10
2023-05-01T18:10:02.286Z,18.10
2023-05-01T18:21:38.347Z,17.70
2023-05-01T18:24:39.391Z,17.60
2023-05-01T18:27:13.990Z,17.60
2023-05-01T18:33:56.918Z,17.60
2023-05-01T18:37:22.152Z,17.60
2023-05-01T18:40:34.418Z,17.30
2023-05-01T18:47:11.701Z,17.30
2023-05-01T18:49:42.458Z,17.30
2023-05-01T18:52:33.448Z,17.30
2023-05-01T18:55:27.187Z,17.20
2023-05-01T18:58:03.166Z,17.10
2023-05-01T19:00:36.719Z,17.00
2023-05-01T19:03:34.459Z,17.10
2023-05-01T19:06:16.267Z,16.80
2023-05-01T19:08:50.758Z,16.90
2023-05-01T19:11:56.431Z,16.90
2023-05-01T19:15:16.730Z,16.90
2023-05-01T19:18:12.872Z,16.90
2023-05-01T19:21:17.464Z,17.00
2023-05-01T19:28:01.610Z,16.80
2023-05-01T19:30:36.735Z,16.80
2023-05-01T19:34:00.219Z,16.80
2023-05-01T19:37:12.373Z,16.80
2023-05-01T19:53:52.186Z,16.60
2023-05-01T19:59:24.861Z,16.60
2023-05-01T20:02:22.941Z,16.50
2023-05-01T20:05:05.398Z,16.50
2023-05-01T20:08:08.929Z,16.50
2023-05-01T20:20:58.488Z,16.30
2023-05-01T20:23:33.151Z,16.40
2023-05-01T20:29:03.646Z,16.40
2023-05-01T20:31:35.659Z,16.40
2023-05-01T20:34:45.712Z,16.40
2023-05-01T20:41:13.535Z,16.30
2023-05-01T20:43:43.681Z,16.20
2023-05-01T20:47:07.720Z,16.20
2023-05-01T20:49:46.827Z,16.10
2023-05-01T20:52:24.949Z,16.10
2023-05-01T20:55:00.333Z,16.10
2023-05-01T20:57:33.319Z,16.10
2023-05-01T21:00:05.518Z,16.00
2023-05-01T21:02:47.511Z,15.90
2023-05-01T21:05:28.680Z,15.80
2023-05-01T21:08:07.520Z,15.80
2023-05-01T21:10:56.843Z,15.70
2023-05-01T21:13:36.964Z,15.80
2023-05-01T21:22:27.748Z,15.40
2023-05-01T21:25:30.862Z,15.50
2023-05-01T21:28:02.245Z,15.50
2023-05-01T21:30:44.709Z,15.40
2023-05-01T21:33:21.589Z,15.50
2023-05-01T21:36:06.249Z,15.50
2023-05-01T21:38:46.951Z,15.50
2023-05-01T21:41:25.829Z,15.40
2023-05-01T21:44:16.955Z,15.40
2023-05-01T21:46:52.281Z,15.40
2023-05-01T21:49:30.565Z,15.40
2023-05-01T21:52:20.078Z,15.50
2023-05-01T21:54:50.026Z,15.40
2023-05-01T21:57:43.222Z,15.30
2023-05-01T22:00:12.847Z,15.30
2023-05-01T22:03:09.960Z,15.20
2023-05-01T22:05:41.706Z,15.00
2023-05-01T22:08:09.080Z,14.90
2023-05-01T22:10:51.880Z,15.00
2023-05-01T22:13:44.024Z,15.10
2023-05-01T22:16:14.447Z,15.00
2023-05-01T22:18:55.657Z,15.00
2023-05-01T22:21:24.035Z,15.00
2023-05-01T22:23:55.869Z,15.00
2023-05-01T22:26:29.113Z,14.80
2023-05-01T22:29:17.987Z,14.90
2023-05-01T22:31:54.110Z,14.80
2023-05-01T22:34:23.333Z,14.90
2023-05-01T22:37:00.707Z,14.70
2023-05-01T22:40:09.023Z,14.80
2023-05-01T22:43:04.108Z,14.90
2023-05-01T22:45:34.834Z,15.00
2023-05-01T22:48:10.032Z,15.00
2023-05-01T22:50:49.638Z,15.00
2023-05-01T22:53:30.120Z,14.90
2023-05-01T22:56:05.006Z,14.80
2023-05-01T22:58:37.117Z,14.60
2023-05-01T23:03:54.224Z,14.20
2023-05-01T23:06:24.057Z,14.50
2023-05-01T23:08:58.895Z,14.70
2023-05-01T23:14:34.665Z,14.90
2023-05-01T23:17:13.421Z,14.90
2023-05-01T23:22:35.569Z,14.80
2023-05-01T23:25:06.173Z,14.90
2023-05-01T23:27:34.642Z,14.90
2023-05-01T23:30:05.816Z,14.80
2023-05-01T23:32:47.841Z,14.90
2023-05-01T23:35:24.806Z,14.90
2023-05-01T23:40:38.644Z,14.90
2023-05-01T23:43:10.623Z,14.90
2023-05-01T23:45:38.203Z,14.90
2023-05-01T23:48:09.584Z,14.90
2023-05-01T23:50:37.507Z,14.80
2023-05-01T23:53:10.203Z,14.70
2023-05-01T23:56:00.468Z,14.50
2023-05-01T23:58:27.742Z,14.40
